createdAt,value
2023-07-14T00:05:16.129Z,12.91
2023-07-14T00:08:03.520Z,12.88
2023-07-14T00:10:49.092Z,12.62
2023-07-14T00:13:34.518Z,12.64
2023-07-14T00:16:29.415Z,12.43
2023-07-14T00:19:17.679Z,12.23
2023-07-14T00:22:03.675Z,12.42
2023-07-14T00:24:48.986Z,12.57
2023-07-14T00:27:34.466Z,12.42
2023-07-14T00:30:22.339Z,12.31
2023-07-14T00:33:20.387Z,12.20
2023-07-14T00:36:06.055Z,12.23
2023-07-14T00:38:51.680Z,12.13
2023-07-14T00:41:36.834Z,12.05
2023-07-14T00:44:22.175Z,12.22
2023-07-14T00:47:26.899Z,11.90
2023-07-14T00:50:30.118Z,12.30
2023-07-14T00:53:20.538Z,12.22
2023-07-14T00:56:12.070Z,12.29
2023-07-14T00:58:59.361Z,12.38
2023-07-14T01:02:23.221Z,12.46
2023-07-14T01:05:09.042Z,12.51
2023-07-14T01:07:56.215Z,12.00
2023-07-14T01:10:42.578Z,12.39
2023-07-14T01:13:30.652Z,12.51
2023-07-14T01:16:16.790Z,12.61
2023-07-14T01:19:08.358Z,12.72
2023-07-14T01:22:22.185Z,12.78
2023-07-14T01:25:26.095Z,12.81
2023-07-14T01:28:14.792Z,12.81
2023-07-14T01:31:02.243Z,12.83
2023-07-14T01:33:47.727Z,12.78
2023-07-14T01:36:33.212Z,12.88
2023-07-14T01:39:18.598Z,12.97
2023-07-14T01:42:04.327Z,12.99
2023-07-14T01:44:50.333Z,12.98
2023-07-14T01:47:36.253Z,12.96
2023-07-14T01:50:26.372Z,12.93
2023-07-14T01:53:22.144Z,12.87
2023-07-14T01:56:11.154Z,12.76
2023-07-14T01:59:20.868Z,12.65
2023-07-14T02:02:12.732Z,12.58
2023-07-14T02:04:58.641Z,12.59
2023-07-14T02:07:44.156Z,12.63
2023-07-14T02:10:29.821Z,12.43
2023-07-14T02:13:15.157Z,12.42
2023-07-14T02:16:01.041Z,12.35
2023-07-14T02:18:48.456Z,12.32
2023-07-14T02:21:33.923Z,12.35
2023-07-14T02:24:23.491Z,12.33
2023-07-14T02:27:12.621Z,12.29
2023-07-14T02:30:02.411Z,12.19
2023-07-14T02:32:52.948Z,12.08
2023-07-14T02:36:08.761Z,12.03
2023-07-14T02:38:54.318Z,12.06
2023-07-14T02:41:43.482Z,11.81
2023-07-14T02:44:34.586Z,11.68
2023-07-14T02:47:22.656Z,11.71
2023-07-14T02:50:08.394Z,11.71
2023-07-14T02:52:54.040Z,11.61
2023-07-14T02:55:39.385Z,11.52
2023-07-14T02:58:24.823Z,11.49
2023-07-14T03:01:10.317Z,10.92
2023-07-14T03:03:57.887Z,11.06
2023-07-14T03:06:45.890Z,11.39
2023-07-14T03:09:32.856Z,11.08
2023-07-14T03:12:19.772Z,11.42
2023-07-14T03:15:06.131Z,11.23
2023-07-14T03:17:52.044Z,11.25
2023-07-14T03:20:37.446Z,11.13
2023-07-14T03:23:22.899Z,11.33
2023-07-14T03:26:10.053Z,11.30
2023-07-14T03:28:56.054Z,11.28
2023-07-14T03:31:41.445Z,11.25
2023-07-14T03:34:26.986Z,11.14
2023-07-14T03:37:12.487Z,11.09
2023-07-14T03:39:57.783Z,10.46
2023-07-14T03:42:42.998Z,11.12
2023-07-14T03:45:28.689Z,11.11
2023-07-14T03:48:13.954Z,11.07
2023-07-14T03:51:03.388Z,10.95
2023-07-14T03:53:48.669Z,10.93
2023-07-14T03:56:34.128Z,11.02
2023-07-14T03:59:19.385Z,10.67
2023-07-14T04:02:05.131Z,11.27
2023-07-14T04:04:50.812Z,11.47
2023-07-14T04:07:38.027Z,11.16
2023-07-14T04:10:23.427Z,11.42
2023-07-14T04:13:09.077Z,11.48
2023-07-14T04:15:54.495Z,11.87
2023-07-14T04:18:39.739Z,11.86
2023-07-14T04:21:25.712Z,12.10
2023-07-14T04:24:11.404Z,12.20
2023-07-14T04:26:56.529Z,12.36
2023-07-14T04:29:41.912Z,12.81
2023-07-14T04:32:27.167Z,12.62
2023-07-14T04:35:12.497Z,13.24
2023-07-14T04:37:57.720Z,12.62
2023-07-14T04:40:43.127Z,12.79
2023-07-14T04:43:28.359Z,12.77
2023-07-14T04:46:14.200Z,12.66
2023-07-14T04:48:59.567Z,12.92
2023-07-14T04:51:45.595Z,12.73
2023-07-14T04:54:31.051Z,12.73
2023-07-14T04:57:16.605Z,12.73
2023-07-14T05:00:02.190Z,12.78
2023-07-14T05:02:47.663Z,13.01
2023-07-14T05:05:33.562Z,13.08
2023-07-14T05:08:18.984Z,14.03
2023-07-14T05:11:04.188Z,14.38
2023-07-14T05:13:52.551Z,14.41
2023-07-14T05:16:38.115Z,14.61
2023-07-14T05:19:23.723Z,14.98
2023-07-14T05:22:08.910Z,14.83
2023-07-14T05:24:54.098Z,14.64
2023-07-14T05:27:39.797Z,14.98
2023-07-14T05:30:25.017Z,14.78
2023-07-14T05:33:10.558Z,14.61
2023-07-14T05:35:55.682Z,14.71
2023-07-14T05:38:40.851Z,14.66
2023-07-14T05:41:26.030Z,14.77
2023-07-14T05:44:11.532Z,14.79
2023-07-14T05:46:56.903Z,14.78
2023-07-14T05:49:42.170Z,14.66
2023-07-14T05:52:27.800Z,14.79
2023-07-14T05:55:13.565Z,15.54
2023-07-14T05:57:58.911Z,15.59
2023-07-14T06:00:44.715Z,15.66
2023-07-14T06:03:30.313Z,15.83
2023-07-14T06:06:15.730Z,15.81
2023-07-14T06:09:02.265Z,16.00
2023-07-14T06:11:47.603Z,16.34
2023-07-14T06:14:37.677Z,16.48
2023-07-14T06:17:23.264Z,16.77
2023-07-14T06:20:09.018Z,17.11
2023-07-14T06:22:54.248Z,17.15
2023-07-14T06:25:39.747Z,17.26
2023-07-14T06:28:25.772Z,17.31
2023-07-14T06:31:14.128Z,17.46
2023-07-14T06:33:59.476Z,17.86
2023-07-14T06:36:44.721Z,17.99
2023-07-14T06:39:30.908Z,18.12
2023-07-14T06:42:16.284Z,18.46
2023-07-14T06:45:02.219Z,18.77
2023-07-14T06:47:47.680Z,18.33
2023-07-14T06:50:33.001Z,19.11
2023-07-14T06:53:19.342Z,18.94
2023-07-14T06:56:05.071Z,18.57
2023-07-14T06:58:50.834Z,18.64
2023-07-14T07:01:36.023Z,19.11
2023-07-14T07:04:21.349Z,19.69
2023-07-14T07:07:06.913Z,19.45
2023-07-14T07:09:52.389Z,19.19
2023-07-14T07:12:37.811Z,19.29
2023-07-14T07:15:23.539Z,19.20
2023-07-14T07:18:09.796Z,19.79
2023-07-14T07:20:56.354Z,19.67
2023-07-14T07:23:41.650Z,19.45
2023-07-14T07:26:26.863Z,20.13
2023-07-14T07:29:11.887Z,20.21
2023-07-14T07:31:57.700Z,20.34
2023-07-14T07:34:43.396Z,20.30
2023-07-14T07:37:30.065Z,20.00
2023-07-14T07:40:15.471Z,20.29
2023-07-14T07:43:01.955Z,20.67
2023-07-14T07:45:50.269Z,20.78
2023-07-14T07:48:36.619Z,20.85
2023-07-14T07:51:21.845Z,20.81
2023-07-14T07:54:06.917Z,21.02
2023-07-14T07:56:52.454Z,21.40
2023-07-14T07:59:38.379Z,21.35
2023-07-14T08:02:25.176Z,21.37
2023-07-14T08:05:14.882Z,21.66
2023-07-14T08:08:00.315Z,21.95
2023-07-14T08:10:46.399Z,21.48
2023-07-14T08:13:31.657Z,21.37
2023-07-14T08:16:17.275Z,21.88
2023-07-14T08:19:03.309Z,21.91
2023-07-14T08:21:48.532Z,22.14
2023-07-14T08:24:33.926Z,22.30
2023-07-14T08:27:19.563Z,22.81
2023-07-14T08:30:05.747Z,22.82
2023-07-14T08:32:51.367Z,23.04
2023-07-14T08:35:36.705Z,23.35
2023-07-14T08:38:23.174Z,22.89
2023-07-14T08:41:36.722Z,22.50
2023-07-14T08:44:22.288Z,22.51
2023-07-14T08:47:20.779Z,22.40
2023-07-14T08:50:14.935Z,22.69
2023-07-14T08:53:03.157Z,22.94
2023-07-14T08:55:48.708Z,22.72
2023-07-14T08:58:41.828Z,23.45
2023-07-14T09:01:47.476Z,23.66
2023-07-14T09:04:39.301Z,24.14
2023-07-14T09:07:24.634Z,23.94
2023-07-14T09:10:13.509Z,24.38
2023-07-14T09:13:03.940Z,24.13
2023-07-14T09:15:50.562Z,24.38
2023-07-14T09:18:50.093Z,24.03
2023-07-14T09:21:41.338Z,24.01
2023-07-14T09:24:39.146Z,23.54
2023-07-14T09:27:28.280Z,23.75
2023-07-14T09:30:21.384Z,23.47
2023-07-14T09:33:15.168Z,23.93
2023-07-14T09:36:00.900Z,23.84
2023-07-14T09:38:54.515Z,24.85
2023-07-14T09:41:39.938Z,25.22
2023-07-14T09:44:25.591Z,24.70
2023-07-14T09:47:11.464Z,24.67
2023-07-14T09:49:56.989Z,24.62
2023-07-14T09:52:50.594Z,24.19
2023-07-14T09:55:58.346Z,23.99
2023-07-14T09:58:54.106Z,24.14
2023-07-14T10:01:51.799Z,24.30
2023-07-14T10:04:37.055Z,24.24
2023-07-14T10:07:37.722Z,24.16
2023-07-14T10:10:23.769Z,24.07
2023-07-14T10:13:21.317Z,24.39
2023-07-14T10:16:15.307Z,24.17
2023-07-14T10:19:11.714Z,23.83
2023-07-14T10:22:18.402Z,23.79
2023-07-14T10:25:04.014Z,23.49
2023-07-14T10:27:57.281Z,23.58
2023-07-14T10:31:18.328Z,23.55
2023-07-14T10:34:15.695Z,23.60
2023-07-14T10:37:09.178Z,23.82
2023-07-14T10:40:08.085Z,24.02
2023-07-14T10:43:01.508Z,24.27
2023-07-14T10:45:50.486Z,24.51
2023-07-14T10:48:42.820Z,24.97
2023-07-14T10:52:06.252Z,24.78
2023-07-14T10:54:57.104Z,24.30
2023-07-14T10:57:47.259Z,24.50
2023-07-14T11:00:41.692Z,24.36
2023-07-14T11:03:40.325Z,24.33
2023-07-14T11:06:31.419Z,24.64
2023-07-14T11:09:17.185Z,24.20
2023-07-14T11:12:17.869Z,24.26
2023-07-14T11:15:21.924Z,24.64
2023-07-14T11:18:30.081Z,24.99
2023-07-14T11:21:28.911Z,24.87
2023-07-14T11:24:25.426Z,24.56
2023-07-14T11:27:30.338Z,24.81
2023-07-14T11:30:22.824Z,24.46
2023-07-14T11:33:17.052Z,24.58
2023-07-14T11:36:32.735Z,24.39
2023-07-14T11:39:45.919Z,24.80
2023-07-14T11:42:36.066Z,25.13
2023-07-14T11:45:25.368Z,25.25
2023-07-14T11:48:45.054Z,25.25
2023-07-14T11:52:09.926Z,24.86
2023-07-14T11:55:20.961Z,24.92
2023-07-14T11:58:12.139Z,25.40
2023-07-14T12:01:03.981Z,25.46
2023-07-14T12:03:52.613Z,25.52
2023-07-14T12:07:03.466Z,25.59
2023-07-14T12:10:13.019Z,25.37
2023-07-14T12:13:16.983Z,25.33
2023-07-14T12:16:02.344Z,25.09
2023-07-14T12:19:02.141Z,24.91
2023-07-14T12:22:08.485Z,25.11
2023-07-14T12:24:54.210Z,24.93
2023-07-14T12:27:45.039Z,25.17
2023-07-14T12:30:31.665Z,25.35
2023-07-14T12:33:17.711Z,25.24
2023-07-14T12:36:04.538Z,25.38
2023-07-14T12:38:51.447Z,25.29
2023-07-14T12:41:40.781Z,25.45
2023-07-14T12:44:33.943Z,25.82
2023-07-14T12:47:19.833Z,25.79
2023-07-14T12:50:05.539Z,25.92
2023-07-14T12:52:51.301Z,25.55
2023-07-14T12:55:36.970Z,25.52
2023-07-14T12:58:24.586Z,25.58
2023-07-14T13:01:10.091Z,25.75
2023-07-14T13:03:55.522Z,25.85
2023-07-14T13:06:43.514Z,26.04
2023-07-14T13:09:29.628Z,25.92
2023-07-14T13:12:15.756Z,25.50
2023-07-14T13:15:04.165Z,25.30
2023-07-14T13:20:40.273Z,25.49
2023-07-14T13:23:28.927Z,24.96
2023-07-14T13:26:19.050Z,24.81
2023-07-14T13:29:15.044Z,24.92
2023-07-14T13:32:05.703Z,25.23
2023-07-14T13:34:54.477Z,25.00
2023-07-14T13:37:41.517Z,25.60
2023-07-14T13:40:26.907Z,25.78
2023-07-14T13:43:19.735Z,26.01
2023-07-14T13:46:14.125Z,25.91
2023-07-14T13:49:05.980Z,25.88
2023-07-14T13:51:51.617Z,25.55
2023-07-14T13:54:41.709Z,25.13
2023-07-14T13:57:26.847Z,25.47
2023-07-14T14:00:23.707Z,25.97
2023-07-14T14:03:11.022Z,26.16
2023-07-14T14:05:56.145Z,26.59
2023-07-14T14:08:41.489Z,26.08
2023-07-14T14:11:26.915Z,26.21
2023-07-14T14:14:13.569Z,26.14
2023-07-14T14:16:59.917Z,26.01
2023-07-14T14:19:44.984Z,26.15
2023-07-14T14:22:30.628Z,25.58
2023-07-14T14:25:19.094Z,26.11
2023-07-14T14:28:05.280Z,26.20
2023-07-14T14:30:58.113Z,26.32
2023-07-14T14:33:47.077Z,25.83
2023-07-14T14:36:35.155Z,26.37
2023-07-14T14:39:23.213Z,25.95
2023-07-14T14:42:16.754Z,25.84
2023-07-14T14:45:02.153Z,26.14
2023-07-14T14:47:47.946Z,26.11
2023-07-14T14:50:33.190Z,25.97
2023-07-14T14:53:24.261Z,25.95
2023-07-14T14:56:18.338Z,26.03
2023-07-14T14:59:13.565Z,26.22
2023-07-14T15:01:58.729Z,26.58
2023-07-14T15:04:44.135Z,26.60
2023-07-14T15:07:29.703Z,26.24
2023-07-14T15:10:15.465Z,26.55
2023-07-14T15:13:00.868Z,26.63
2023-07-14T15:15:49.434Z,26.62
2023-07-14T15:18:34.500Z,26.77
2023-07-14T15:21:20.204Z,26.72
2023-07-14T15:24:06.094Z,26.52
2023-07-14T15:26:51.691Z,26.48
2023-07-14T15:29:36.666Z,26.59
2023-07-14T15:32:23.320Z,26.33
2023-07-14T15:35:19.686Z,25.82
2023-07-14T15:38:05.144Z,25.63
2023-07-14T15:40:51.386Z,26.14
2023-07-14T15:43:36.899Z,26.26
2023-07-14T15:46:23.972Z,26.45
2023-07-14T15:49:19.596Z,26.30
2023-07-14T15:52:05.901Z,26.15
2023-07-14T15:54:51.101Z,26.21
2023-07-14T15:57:36.349Z,25.89
2023-07-14T16:00:22.762Z,25.83
2023-07-14T16:03:09.422Z,25.84
2023-07-14T16:05:55.296Z,25.90
2023-07-14T16:08:41.473Z,25.86
2023-07-14T16:11:33.424Z,25.58
2023-07-14T16:14:18.988Z,25.03
2023-07-14T16:17:04.990Z,25.25
2023-07-14T16:19:50.187Z,24.61
2023-07-14T16:22:35.804Z,25.02
2023-07-14T16:25:21.952Z,25.42
2023-07-14T16:28:07.199Z,25.40
2023-07-14T16:30:52.703Z,25.67
2023-07-14T16:33:38.639Z,25.36
2023-07-14T16:36:32.623Z,25.93
2023-07-14T16:39:24.952Z,25.49
2023-07-14T16:42:16.507Z,25.99
2023-07-14T16:45:01.979Z,26.13
2023-07-14T16:47:47.458Z,25.76
2023-07-14T16:50:32.509Z,25.71
2023-07-14T16:53:19.972Z,25.53
2023-07-14T16:56:05.214Z,25.36
2023-07-14T16:58:50.521Z,25.39
2023-07-14T17:01:36.132Z,25.39
2023-07-14T17:04:24.282Z,25.59
2023-07-14T17:07:10.679Z,25.38
2023-07-14T17:09:56.213Z,25.37
2023-07-14T17:12:41.419Z,25.09
2023-07-14T17:15:26.804Z,24.89
2023-07-14T17:18:13.694Z,25.29
2023-07-14T17:21:00.730Z,25.24
2023-07-14T17:23:46.294Z,25.35
2023-07-14T17:26:31.696Z,25.45
2023-07-14T17:29:31.649Z,25.64
2023-07-14T17:32:16.898Z,25.28
2023-07-14T17:35:03.387Z,25.03
2023-07-14T17:37:51.049Z,24.86
2023-07-14T17:40:36.380Z,24.88
2023-07-14T17:43:22.030Z,24.67
2023-07-14T17:46:08.435Z,24.53
2023-07-14T17:48:55.521Z,24.62
2023-07-14T17:51:51.814Z,24.21
2023-07-14T17:54:37.132Z,24.02
2023-07-14T17:57:22.672Z,24.32
2023-07-14T18:00:14.575Z,24.02
2023-07-14T18:03:00.531Z,24.11
2023-07-14T18:05:46.156Z,24.07
2023-07-14T18:08:31.464Z,24.11
2023-07-14T18:11:24.401Z,23.88
2023-07-14T18:14:14.457Z,23.71
2023-07-14T18:16:59.900Z,23.65
2023-07-14T18:19:46.064Z,23.78
2023-07-14T18:22:31.899Z,23.25
2023-07-14T18:25:23.199Z,23.45
2023-07-14T18:28:18.143Z,23.19
2023-07-14T18:31:15.211Z,23.05
2023-07-14T18:34:00.652Z,22.89
2023-07-14T18:36:48.037Z,22.54
2023-07-14T18:39:33.347Z,22.51
2023-07-14T18:42:22.946Z,21.97
2023-07-14T18:45:20.022Z,22.25
2023-07-14T18:48:22.905Z,22.16
2023-07-14T18:51:16.652Z,22.21
2023-07-14T18:57:23.104Z,22.06
2023-07-14T19:00:14.221Z,22.02
2023-07-14T19:02:59.486Z,21.99
2023-07-14T19:05:45.499Z,21.88
2023-07-14T19:08:31.451Z,21.83
2023-07-14T19:11:19.512Z,21.78
2023-07-14T19:14:04.629Z,21.71
2023-07-14T19:16:50.189Z,21.49
2023-07-14T19:19:35.822Z,21.45
2023-07-14T19:22:21.954Z,21.18
2023-07-14T19:25:17.649Z,21.26
2023-07-14T19:28:15.203Z,21.16
2023-07-14T19:31:00.822Z,21.32
2023-07-14T19:33:46.107Z,21.19
2023-07-14T19:36:31.658Z,21.08
2023-07-14T19:39:17.680Z,20.54
2023-07-14T19:42:05.913Z,20.80
2023-07-14T19:44:50.969Z,20.68
2023-07-14T19:47:36.449Z,20.60
2023-07-14T19:50:22.155Z,20.50
2023-07-14T19:53:22.693Z,20.39
2023-07-14T19:56:10.405Z,20.24
2023-07-14T19:58:57.149Z,20.16
2023-07-14T20:01:42.158Z,20.09
2023-07-14T20:04:27.445Z,20.13
2023-07-14T20:07:12.771Z,20.06
2023-07-14T20:09:58.354Z,20.01
2023-07-14T20:12:44.197Z,19.95
2023-07-14T20:15:29.745Z,19.82
2023-07-14T20:18:26.616Z,19.79
2023-07-14T20:21:31.318Z,19.63
2023-07-14T20:24:22.081Z,19.30
2023-07-14T20:27:25.734Z,19.54
2023-07-14T20:30:20.423Z,19.39
2023-07-14T20:33:06.256Z,19.15
2023-07-14T20:35:52.877Z,19.21
2023-07-14T20:38:38.302Z,19.14
2023-07-14T20:41:33.823Z,19.09
2023-07-14T20:44:19.397Z,19.01
2023-07-14T20:47:13.811Z,19.01
2023-07-14T20:49:59.253Z,18.95
2023-07-14T20:52:46.884Z,18.83
2023-07-14T20:55:32.130Z,18.79
2023-07-14T20:58:19.964Z,18.71
2023-07-14T21:01:10.038Z,18.58
2023-07-14T21:03:55.140Z,18.62
2023-07-14T21:06:40.368Z,18.56
2023-07-14T21:09:25.755Z,18.55
2023-07-14T21:12:15.920Z,18.48
2023-07-14T21:15:01.292Z,18.16
2023-07-14T21:17:46.773Z,17.96
2023-07-14T21:20:35.064Z,17.81
2023-07-14T21:23:20.519Z,17.70
2023-07-14T21:26:07.143Z,17.22
2023-07-14T21:28:58.117Z,17.55
2023-07-14T21:31:43.743Z,17.53
2023-07-14T21:34:29.315Z,17.11
2023-07-14T21:37:14.515Z,17.54
2023-07-14T21:39:59.964Z,17.51
2023-07-14T21:42:46.177Z,17.47
2023-07-14T21:45:31.486Z,17.42
2023-07-14T21:48:21.913Z,17.35
2023-07-14T21:51:14.614Z,17.27
2023-07-14T21:54:00.003Z,17.22
2023-07-14T21:56:47.256Z,17.11
2023-07-14T21:59:36.201Z,17.08
2023-07-14T22:02:21.537Z,17.00
2023-07-14T22:05:13.233Z,16.98
2023-07-14T22:07:58.756Z,16.96
2023-07-14T22:10:46.893Z,16.88
2023-07-14T22:13:33.906Z,16.81
2023-07-14T22:16:20.664Z,16.67
2023-07-14T22:19:18.272Z,16.68
2023-07-14T22:22:03.962Z,14.81
2023-07-14T22:24:52.391Z,14.95
2023-07-14T22:27:39.520Z,13.91
2023-07-14T22:30:24.876Z,16.51
2023-07-14T22:33:15.957Z,16.47
2023-07-14T22:36:03.450Z,16.40
2023-07-14T22:38:49.103Z,16.26
2023-07-14T22:41:38.511Z,16.34
2023-07-14T22:44:24.023Z,16.33
2023-07-14T22:47:11.121Z,16.09
2023-07-14T22:49:56.171Z,16.25
2023-07-14T22:52:43.051Z,16.24
2023-07-14T22:55:28.350Z,16.19
2023-07-14T22:58:15.744Z,16.16
2023-07-14T23:01:01.186Z,16.11
2023-07-14T23:03:48.281Z,16.12
2023-07-14T23:06:33.852Z,16.11
2023-07-14T23:09:19.541Z,16.14
2023-07-14T23:12:05.152Z,16.07
2023-07-14T23:14:50.882Z,16.03
2023-07-14T23:17:36.278Z,16.01
2023-07-14T23:20:21.459Z,16.01
2023-07-14T23:23:11.957Z,15.98
2023-07-14T23:25:57.625Z,15.96
2023-07-14T23:28:43.216Z,15.92
2023-07-14T23:31:32.602Z,15.91
2023-07-14T23:34:17.807Z,15.87
2023-07-14T23:37:04.198Z,15.83
2023-07-14T23:39:49.680Z,15.78
2023-07-14T23:42:36.748Z,15.72
2023-07-14T23:45:24.438Z,15.74
2023-07-14T23:48:10.328Z,15.58
2023-07-14T23:50:56.031Z,15.78
2023-07-14T23:53:41.521Z,15.70
2023-07-14T23:56:28.158Z,15.51
2023-07-14T23:59:13.290Z,15.27
